createdAt,value
2018-09-06T00:01:36.325Z,51.00
2018-09-06T00:04:04.556Z,50.60
2018-09-06T00:06:32.760Z,51.90
2018-09-06T00:09:00.945Z,50.60
2018-09-06T00:11:29.125Z,54.93
2018-09-06T00:13:57.327Z,51.33
2018-09-06T00:16:25.567Z,53.40
2018-09-06T00:18:53.715Z,52.30
2018-09-06T00:21:21.900Z,52.63
2018-09-06T00:23:50.092Z,52.33
2018-09-06T00:26:18.271Z,52.80
2018-09-06T00:28:46.447Z,52.47
2018-09-06T00:31:14.625Z,52.00
2018-09-06T00:33:42.811Z,52.90
2018-09-06T00:36:11.020Z,51.43
2018-09-06T00:38:39.200Z,52.33
2018-09-06T00:41:07.404Z,51.50
2018-09-06T00:43:35.609Z,53.17
2018-09-06T00:46:03.948Z,51.43
2018-09-06T00:48:32.154Z,47.07
2018-09-06T00:51:00.363Z,50.60
2018-09-06T00:53:28.542Z,50.10
2018-09-06T00:55:56.733Z,47.83
2018-09-06T00:58:24.988Z,44.50
2018-09-06T01:00:53.194Z,40.97
2018-09-06T01:03:21.410Z,41.00
2018-09-06T01:05:49.598Z,45.10
2018-09-06T01:08:17.778Z,43.67
2018-09-06T01:10:45.979Z,42.73
2018-09-06T01:13:14.152Z,45.73
2018-09-06T01:15:42.344Z,43.13
2018-09-06T01:18:10.528Z,40.53
2018-09-06T01:20:38.718Z,42.00
2018-09-06T01:23:07.017Z,40.50
2018-09-06T01:25:51.663Z,42.93
2018-09-06T01:28:20.936Z,39.67
2018-09-06T01:30:49.522Z,43.03
2018-09-06T01:33:17.715Z,40.73
2018-09-06T01:35:51.091Z,41.50
2018-09-06T01:38:19.273Z,42.13
2018-09-06T01:40:47.465Z,41.13
2018-09-06T01:43:15.692Z,41.90
2018-09-06T01:45:43.875Z,44.10
2018-09-06T01:48:12.050Z,46.03
2018-09-06T01:50:40.262Z,41.47
2018-09-06T01:53:08.452Z,44.10
2018-09-06T01:55:36.654Z,46.13
2018-09-06T01:58:04.850Z,45.90
2018-09-06T02:00:33.068Z,42.43
2018-09-06T02:03:01.271Z,44.17
2018-09-06T02:05:30.406Z,46.07
2018-09-06T02:07:59.088Z,47.90
2018-09-06T02:10:27.263Z,47.53
2018-09-06T02:12:55.472Z,48.03
2018-09-06T02:15:23.655Z,47.63
2018-09-06T02:17:51.835Z,47.73
2018-09-06T02:20:20.045Z,51.30
2018-09-06T02:22:48.240Z,48.87
2018-09-06T02:25:16.463Z,50.87
2018-09-06T02:27:44.650Z,49.97
2018-09-06T02:30:12.861Z,52.27
2018-09-06T02:32:41.037Z,48.20
2018-09-06T02:35:09.219Z,50.50
2018-09-06T02:37:37.791Z,52.73
2018-09-06T02:40:06.700Z,48.97
2018-09-06T02:42:34.884Z,53.63
2018-09-06T02:45:03.083Z,52.63
2018-09-06T02:47:31.284Z,49.20
2018-09-06T02:50:04.704Z,49.90
2018-09-06T02:52:32.892Z,48.50
2018-09-06T02:55:01.088Z,52.30
2018-09-06T02:57:29.267Z,54.30
2018-09-06T02:59:57.468Z,50.23
2018-09-06T03:02:25.659Z,52.60
2018-09-06T03:04:53.882Z,54.33
2018-09-06T03:07:22.068Z,56.23
2018-09-06T03:09:50.264Z,55.27
2018-09-06T03:12:18.459Z,58.13
2018-09-06T03:14:46.708Z,56.43
2018-09-06T03:17:14.874Z,59.37
2018-09-06T03:19:43.075Z,56.53
2018-09-06T03:22:11.253Z,53.77
2018-09-06T03:24:39.424Z,54.90
2018-09-06T03:27:07.635Z,55.67
2018-09-06T03:29:35.803Z,53.83
2018-09-06T03:32:03.999Z,54.10
2018-09-06T03:34:32.197Z,55.73
2018-09-06T03:37:00.373Z,55.37
2018-09-06T03:39:28.539Z,57.43
2018-09-06T03:41:56.735Z,57.23
2018-09-06T03:44:24.977Z,54.80
2018-09-06T03:46:53.159Z,60.57
2018-09-06T03:49:21.334Z,62.10
2018-09-06T03:51:49.537Z,53.90
2018-09-06T03:54:17.742Z,57.50
2018-09-06T03:56:46.212Z,58.20
2018-09-06T03:59:14.400Z,59.10
2018-09-06T04:01:42.595Z,57.63
2018-09-06T04:04:10.782Z,56.93
2018-09-06T04:06:38.980Z,56.80
2018-09-06T04:09:08.847Z,55.50
2018-09-06T04:11:37.023Z,52.57
2018-09-06T04:14:05.257Z,57.70
2018-09-06T04:16:33.571Z,61.00
2018-09-06T04:19:01.812Z,63.80
2018-09-06T04:21:36.742Z,58.67
2018-09-06T04:24:04.959Z,60.83
2018-09-06T04:26:33.172Z,58.40
2018-09-06T04:29:01.443Z,54.20
2018-09-06T04:31:29.652Z,57.17
2018-09-06T04:33:57.849Z,54.40
2018-09-06T04:36:26.015Z,54.00
2018-09-06T04:38:54.211Z,59.37
2018-09-06T04:41:22.379Z,58.80
2018-09-06T04:43:50.650Z,59.73
2018-09-06T04:46:18.804Z,56.87
2018-09-06T04:48:47.128Z,60.37
2018-09-06T04:51:15.294Z,59.27
2018-09-06T04:53:43.476Z,57.60
2018-09-06T04:56:11.659Z,58.00
2018-09-06T04:58:39.964Z,51.50
2018-09-06T05:01:08.271Z,57.63
2018-09-06T05:03:36.455Z,58.37
2018-09-06T05:06:04.776Z,58.33
2018-09-06T05:08:32.960Z,53.70
2018-09-06T05:11:01.136Z,56.20
2018-09-06T05:13:29.294Z,54.03
2018-09-06T05:15:57.479Z,55.37
2018-09-06T05:18:25.673Z,56.40
2018-09-06T05:20:53.861Z,55.47
2018-09-06T05:23:22.023Z,52.83
2018-09-06T05:25:50.212Z,52.87
2018-09-06T05:28:18.386Z,54.03
2018-09-06T05:30:46.611Z,54.67
2018-09-06T05:33:14.756Z,55.50
2018-09-06T05:35:42.965Z,57.77
2018-09-06T05:38:11.139Z,60.37
2018-09-06T05:40:39.304Z,57.30
2018-09-06T05:43:07.493Z,53.80
2018-09-06T05:45:35.687Z,53.80
2018-09-06T05:48:03.881Z,52.80
2018-09-06T05:50:32.164Z,52.20
2018-09-06T05:53:01.694Z,55.50
2018-09-06T05:55:29.903Z,53.40
2018-09-06T05:57:58.096Z,52.67
2018-09-06T06:00:31.446Z,49.00
2018-09-06T06:03:01.547Z,50.37
2018-09-06T06:05:29.843Z,47.90
2018-09-06T06:08:09.353Z,48.60
2018-09-06T06:10:37.525Z,50.07
2018-09-06T06:13:05.710Z,46.30
2018-09-06T06:15:33.877Z,46.40
2018-09-06T06:18:02.748Z,47.13
2018-09-06T06:20:30.924Z,51.90
2018-09-06T06:22:59.132Z,48.23
2018-09-06T06:25:27.311Z,51.23
2018-09-06T06:27:55.511Z,52.33
2018-09-06T06:30:23.690Z,51.07
2018-09-06T06:32:51.879Z,50.60
2018-09-06T06:35:20.105Z,51.23
2018-09-06T06:37:48.246Z,52.73
2018-09-06T06:40:16.425Z,51.77
2018-09-06T06:42:44.596Z,48.57
2018-09-06T06:45:12.787Z,51.10
2018-09-06T06:47:40.965Z,45.20
2018-09-06T06:50:09.147Z,49.80
2018-09-06T06:52:37.331Z,44.57
2018-09-06T06:55:05.827Z,42.17
2018-09-06T06:57:34.091Z,46.30
2018-09-06T07:00:02.319Z,47.23
2018-09-06T07:02:30.499Z,44.73
2018-09-06T07:04:58.680Z,45.07
2018-09-06T07:07:26.861Z,46.13
2018-09-06T07:09:55.031Z,46.30
2018-09-06T07:12:23.212Z,42.93
2018-09-06T07:14:51.379Z,47.40
2018-09-06T07:17:19.564Z,46.43
2018-09-06T07:19:47.761Z,45.67
2018-09-06T07:22:15.948Z,45.23
2018-09-06T07:24:44.215Z,43.60
2018-09-06T07:27:12.399Z,43.00
2018-09-06T07:29:40.575Z,44.00
2018-09-06T07:32:08.767Z,43.47
2018-09-06T07:34:36.934Z,43.67
2018-09-06T07:37:05.350Z,43.07
2018-09-06T07:39:33.524Z,41.07
2018-09-06T07:42:01.715Z,41.50
2018-09-06T07:44:29.895Z,44.13
2018-09-06T07:46:58.095Z,43.80
2018-09-06T07:49:26.247Z,43.93
2018-09-06T07:51:54.423Z,41.70
2018-09-06T07:54:22.599Z,42.60
2018-09-06T07:56:50.793Z,42.17
2018-09-06T07:59:18.968Z,45.07
2018-09-06T08:01:47.143Z,44.43
2018-09-06T08:04:15.336Z,44.03
2018-09-06T08:06:43.531Z,44.73
2018-09-06T08:09:12.448Z,43.23
2018-09-06T08:11:41.228Z,40.63
2018-09-06T08:14:09.463Z,44.47
2018-09-06T08:16:37.667Z,43.07
2018-09-06T08:19:05.870Z,40.27
2018-09-06T08:21:34.060Z,39.60
2018-09-06T08:24:02.257Z,41.33
2018-09-06T08:26:30.447Z,44.53
2018-09-06T08:28:58.672Z,40.20
2018-09-06T08:31:26.904Z,40.93
2018-09-06T08:33:55.051Z,41.40
2018-09-06T08:36:23.226Z,40.90
2018-09-06T08:38:51.407Z,40.17
2018-09-06T08:41:19.593Z,39.20
2018-09-06T08:43:47.824Z,39.00
2018-09-06T08:46:16.012Z,39.57
2018-09-06T08:48:44.207Z,36.53
2018-09-06T08:51:12.407Z,39.57
2018-09-06T08:53:40.585Z,36.90
2018-09-06T08:56:08.755Z,38.63
2018-09-06T08:58:36.963Z,37.93
2018-09-06T09:01:10.546Z,39.43
2018-09-06T09:03:38.757Z,38.60
2018-09-06T09:06:06.964Z,36.20
2018-09-06T09:08:35.233Z,39.67
2018-09-06T09:11:03.399Z,36.20
2018-09-06T09:13:31.616Z,35.60
2018-09-06T09:15:59.850Z,35.27
2018-09-06T09:18:28.069Z,35.20
2018-09-06T09:20:56.218Z,35.67
2018-09-06T09:23:24.387Z,33.00
2018-09-06T09:25:52.564Z,33.10
2018-09-06T09:28:20.758Z,33.10
2018-09-06T09:30:48.944Z,35.13
2018-09-06T09:33:17.203Z,35.57
2018-09-06T09:35:45.405Z,32.83
2018-09-06T09:38:13.572Z,32.50
2018-09-06T09:40:41.756Z,30.90
2018-09-06T09:43:10.336Z,32.77
2018-09-06T09:45:38.490Z,28.63
2018-09-06T09:48:06.687Z,30.20
2018-09-06T09:53:02.245Z,27.10
2018-09-06T09:55:30.435Z,26.03
2018-09-06T09:57:58.811Z,22.73
2018-09-06T10:00:32.375Z,20.77
2018-09-06T10:03:05.870Z,20.97
2018-09-06T10:05:39.608Z,21.07
2018-09-06T10:08:13.180Z,19.70
2018-09-06T10:10:41.668Z,20.77
2018-09-06T10:13:10.212Z,20.90
2018-09-06T10:15:38.590Z,19.70
2018-09-06T10:18:07.007Z,20.57
2018-09-06T10:20:35.247Z,21.40
2018-09-06T10:23:03.571Z,21.00
2018-09-06T10:25:31.759Z,20.60
2018-09-06T10:27:59.980Z,21.73
2018-09-06T10:30:28.231Z,25.40
2018-09-06T10:32:56.420Z,28.47
2018-09-06T10:35:24.888Z,27.37
2018-09-06T10:37:53.035Z,29.20
2018-09-06T10:40:21.249Z,33.17
2018-09-06T10:42:49.443Z,29.40
2018-09-06T10:45:17.635Z,29.47
2018-09-06T10:47:46.347Z,32.40
2018-09-06T10:50:14.526Z,29.87
2018-09-06T10:52:42.714Z,27.07
2018-09-06T10:55:10.909Z,30.27
2018-09-06T10:57:39.155Z,32.50
2018-09-06T11:00:07.884Z,30.27
2018-09-06T11:02:36.094Z,31.73
2018-09-06T11:05:04.551Z,30.03
2018-09-06T11:07:32.726Z,31.13
2018-09-06T11:10:00.916Z,34.70
2018-09-06T11:12:29.303Z,29.47
2018-09-06T11:14:57.497Z,31.40
2018-09-06T11:17:25.745Z,35.73
2018-09-06T11:19:53.935Z,38.80
2018-09-06T11:22:22.269Z,36.27
2018-09-06T11:24:50.310Z,36.43
2018-09-06T11:27:18.491Z,36.30
2018-09-06T11:29:46.706Z,35.23
2018-09-06T11:32:14.887Z,33.83
2018-09-06T11:34:43.078Z,34.97
2018-09-06T11:37:11.354Z,36.93
2018-09-06T11:39:39.597Z,34.17
2018-09-06T11:42:07.911Z,38.23
2018-09-06T11:44:36.125Z,43.13
2018-09-06T11:47:04.336Z,44.53
2018-09-06T11:49:32.542Z,42.43
2018-09-06T11:52:00.747Z,42.93
2018-09-06T11:54:29.019Z,43.07
2018-09-06T11:56:57.222Z,46.30
2018-09-06T11:59:25.482Z,43.93
2018-09-06T12:01:53.691Z,43.60
2018-09-06T12:04:21.906Z,43.70
2018-09-06T12:06:50.112Z,43.50
2018-09-06T12:09:19.828Z,46.83
2018-09-06T12:11:48.052Z,45.90
2018-09-06T12:14:16.259Z,48.10
2018-09-06T12:16:44.528Z,46.47
2018-09-06T12:19:12.751Z,46.50
2018-09-06T12:21:40.978Z,48.80
2018-09-06T12:24:09.192Z,47.90
2018-09-06T12:26:37.561Z,47.37
2018-09-06T12:29:06.069Z,41.07
2018-09-06T12:31:34.342Z,43.63
2018-09-06T12:34:02.549Z,43.03
2018-09-06T12:36:30.752Z,41.90
2018-09-06T12:38:59.014Z,42.50
2018-09-06T12:41:27.202Z,37.80
2018-09-06T12:43:55.403Z,39.40
2018-09-06T12:46:23.618Z,38.87
2018-09-06T12:48:51.797Z,37.60
2018-09-06T12:51:19.998Z,36.67
2018-09-06T12:53:48.164Z,38.83
2018-09-06T12:56:16.532Z,38.20
2018-09-06T12:58:44.735Z,38.60
2018-09-06T13:01:13.217Z,39.87
2018-09-06T13:03:41.703Z,41.43
2018-09-06T13:06:09.904Z,40.87
2018-09-06T13:08:38.100Z,41.43
2018-09-06T13:11:06.319Z,40.93
2018-09-06T13:13:34.539Z,39.77
2018-09-06T13:16:03.068Z,38.90
2018-09-06T13:18:31.328Z,39.80
2018-09-06T13:20:59.443Z,39.83
2018-09-06T13:23:27.628Z,40.93
2018-09-06T13:25:55.836Z,38.77
2018-09-06T13:28:24.024Z,42.00
2018-09-06T13:30:52.428Z,39.80
2018-09-06T13:33:20.608Z,37.30
2018-09-06T13:35:48.791Z,37.33
2018-09-06T13:38:16.976Z,35.93
2018-09-06T13:40:45.264Z,36.83
2018-09-06T13:43:13.455Z,36.77
2018-09-06T13:45:41.658Z,36.10
2018-09-06T13:48:09.835Z,36.60
2018-09-06T13:50:38.028Z,37.50
2018-09-06T13:53:06.221Z,37.67
2018-09-06T13:55:34.444Z,38.47
2018-09-06T13:58:02.662Z,37.00
2018-09-06T14:00:31.194Z,35.13
2018-09-06T14:02:59.378Z,37.37
2018-09-06T14:05:27.663Z,36.97
2018-09-06T14:07:55.906Z,37.20
2018-09-06T14:10:24.087Z,41.30
2018-09-06T14:12:52.308Z,34.13
2018-09-06T14:15:20.489Z,35.67
2018-09-06T14:17:48.901Z,37.10
2018-09-06T14:20:17.079Z,39.30
2018-09-06T14:22:45.270Z,36.60
2018-09-06T14:25:13.518Z,38.60
2018-09-06T14:27:41.715Z,37.13
2018-09-06T14:30:09.907Z,37.20
2018-09-06T14:32:38.104Z,39.93
2018-09-06T14:35:06.304Z,38.10
2018-09-06T14:37:34.506Z,40.20
2018-09-06T14:40:02.791Z,42.03
2018-09-06T14:42:31.064Z,42.83
2018-09-06T14:44:59.299Z,38.87
2018-09-06T14:47:27.483Z,42.40
2018-09-06T14:49:55.694Z,42.10
2018-09-06T14:52:23.898Z,43.23
2018-09-06T14:54:52.087Z,43.70
2018-09-06T14:57:20.373Z,44.50
2018-09-06T14:59:48.603Z,44.37
2018-09-06T15:02:16.794Z,43.60
2018-09-06T15:04:44.967Z,45.73
2018-09-06T15:07:13.190Z,42.70
2018-09-06T15:09:41.354Z,44.03
2018-09-06T15:12:09.575Z,43.80
2018-09-06T15:14:37.790Z,43.93
2018-09-06T15:17:06.129Z,41.57
2018-09-06T15:19:34.328Z,44.00
2018-09-06T15:22:02.532Z,40.50
2018-09-06T15:24:30.724Z,42.50
2018-09-06T15:26:58.935Z,43.07
2018-09-06T15:29:27.139Z,41.00
2018-09-06T15:31:55.370Z,41.37
2018-09-06T15:34:24.317Z,37.50
2018-09-06T15:36:52.522Z,45.10
2018-09-06T15:39:20.731Z,44.60
2018-09-06T15:41:48.940Z,44.90
2018-09-06T15:44:17.139Z,40.87
2018-09-06T15:46:45.339Z,43.70
2018-09-06T15:49:13.556Z,39.13
2018-09-06T15:51:41.806Z,44.30
2018-09-06T15:54:10.257Z,43.60
2018-09-06T15:56:38.540Z,45.10
2018-09-06T15:59:07.329Z,45.33
2018-09-06T16:01:35.885Z,43.73
2018-09-06T16:04:04.126Z,44.13
2018-09-06T16:06:32.534Z,42.90
2018-09-06T16:09:00.862Z,42.43
2018-09-06T16:11:29.744Z,42.87
2018-09-06T16:13:57.971Z,43.40
2018-09-06T16:16:26.167Z,42.83
2018-09-06T16:18:55.064Z,41.60
2018-09-06T16:21:23.902Z,45.33
2018-09-06T16:23:52.347Z,47.07
2018-09-06T16:26:21.117Z,42.90
2018-09-06T16:28:50.143Z,41.50
2018-09-06T16:31:18.959Z,39.10
2018-09-06T16:33:48.715Z,38.77
2018-09-06T16:36:17.023Z,40.47
2018-09-06T16:38:46.757Z,41.53
2018-09-06T16:41:15.541Z,41.23
2018-09-06T16:43:45.199Z,40.43
2018-09-06T16:46:13.539Z,39.07
2018-09-06T16:48:41.715Z,37.23
2018-09-06T16:51:09.898Z,37.40
2018-09-06T16:53:38.246Z,41.77
2018-09-06T16:56:06.594Z,36.83
2018-09-06T16:58:34.877Z,37.07
2018-09-06T17:01:03.342Z,40.30
2018-09-06T17:03:31.856Z,36.37
2018-09-06T17:06:00.091Z,37.63
2018-09-06T17:08:29.413Z,40.27
2018-09-06T17:10:58.117Z,39.67
2018-09-06T17:13:27.079Z,37.37
2018-09-06T17:15:56.259Z,37.37
2018-09-06T17:18:24.713Z,38.43
2018-09-06T17:20:53.523Z,41.20
2018-09-06T17:23:21.872Z,37.23
2018-09-06T17:25:50.083Z,36.43
2018-09-06T17:28:18.520Z,36.57
2018-09-06T17:30:46.741Z,35.37
2018-09-06T17:33:14.977Z,37.30
2018-09-06T17:35:43.095Z,34.93
2018-09-06T17:38:11.267Z,39.93
2018-09-06T17:40:39.460Z,38.67
2018-09-06T17:43:08.310Z,37.13
2018-09-06T17:45:37.584Z,36.77
2018-09-06T17:48:06.475Z,36.70
2018-09-06T17:50:34.911Z,37.70
2018-09-06T17:53:03.421Z,38.93
2018-09-06T17:55:32.539Z,40.53
2018-09-06T17:58:00.775Z,39.27
2018-09-06T18:00:30.008Z,37.90
2018-09-06T18:02:58.280Z,39.67
2018-09-06T18:05:27.410Z,40.70
2018-09-06T18:07:56.653Z,41.10
2018-09-06T18:10:25.085Z,42.10
2018-09-06T18:12:53.538Z,43.40
2018-09-06T18:15:22.432Z,41.10
2018-09-06T18:17:50.900Z,43.93
2018-09-06T18:20:18.981Z,43.23
2018-09-06T18:22:47.265Z,35.73
2018-09-06T18:25:15.550Z,42.43
2018-09-06T18:27:43.915Z,40.27
2018-09-06T18:30:12.150Z,41.33
2018-09-06T18:32:40.359Z,39.80
2018-09-06T18:35:08.560Z,40.47
2018-09-06T18:37:36.814Z,39.20
2018-09-06T18:40:05.240Z,39.87
2018-09-06T18:42:33.410Z,38.10
2018-09-06T18:45:01.615Z,40.07
2018-09-06T18:47:29.808Z,42.13
2018-09-06T18:49:57.976Z,39.57
2018-09-06T18:52:26.170Z,42.43
2018-09-06T18:54:54.358Z,38.90
2018-09-06T18:57:22.534Z,42.40
2018-09-06T18:59:50.710Z,40.37
2018-09-06T19:02:18.891Z,41.20
2018-09-06T19:04:47.116Z,38.90
2018-09-06T19:07:15.302Z,42.27
2018-09-06T19:09:43.483Z,39.67
2018-09-06T19:12:11.700Z,37.10
2018-09-06T19:14:39.904Z,36.53
2018-09-06T19:17:08.911Z,30.30
2018-09-06T19:19:38.130Z,32.50
2018-09-06T19:22:06.539Z,31.67
2018-09-06T19:24:34.751Z,30.03
2018-09-06T19:27:03.767Z,28.80
2018-09-06T19:29:32.034Z,31.30
2018-09-06T19:32:00.358Z,30.50
2018-09-06T19:34:29.282Z,28.77
2018-09-06T19:36:59.825Z,26.77
2018-09-06T19:39:28.079Z,27.00
2018-09-06T19:41:56.415Z,27.37
2018-09-06T19:44:25.890Z,25.97
2018-09-06T19:46:54.855Z,25.50
2018-09-06T19:49:24.942Z,24.97
2018-09-06T19:51:53.320Z,25.00
2018-09-06T19:54:21.796Z,23.27
2018-09-06T19:56:49.989Z,24.57
2018-09-06T19:59:19.204Z,24.10
2018-09-06T20:01:47.585Z,24.10
2018-09-06T20:04:15.754Z,21.43
2018-09-06T20:06:44.629Z,22.60
2018-09-06T20:09:12.896Z,20.10
2018-09-06T20:11:42.186Z,21.43
2018-09-06T20:14:10.483Z,22.30
2018-09-06T20:16:38.672Z,23.00
2018-09-06T20:19:06.827Z,21.50
2018-09-06T20:21:35.030Z,23.30
2018-09-06T20:24:03.228Z,23.93
2018-09-06T20:26:31.391Z,22.57
2018-09-06T20:28:59.572Z,23.30
2018-09-06T20:31:27.766Z,23.13
2018-09-06T20:33:55.940Z,23.30
2018-09-06T20:36:24.120Z,23.87
2018-09-06T20:38:52.302Z,22.70
2018-09-06T20:41:20.495Z,24.00
2018-09-06T20:43:48.673Z,23.27
2018-09-06T20:46:16.856Z,22.60
2018-09-06T20:48:45.033Z,23.83
2018-09-06T20:51:13.220Z,25.43
2018-09-06T20:53:41.402Z,22.83
2018-09-06T20:56:09.575Z,24.67
2018-09-06T20:58:37.956Z,24.13
2018-09-06T21:01:06.188Z,24.23
2018-09-06T21:03:34.368Z,23.97
2018-09-06T21:06:02.655Z,22.60
2018-09-06T21:08:30.842Z,23.33
2018-09-06T21:10:59.021Z,23.50
2018-09-06T21:13:27.211Z,23.50
2018-09-06T21:15:55.385Z,23.90
2018-09-06T21:18:23.570Z,23.80
2018-09-06T21:20:51.743Z,23.40
2018-09-06T21:23:19.926Z,23.83
2018-09-06T21:25:48.087Z,22.40
2018-09-06T21:28:16.300Z,23.40
2018-09-06T21:30:44.475Z,23.60
2018-09-06T21:33:12.660Z,23.80
2018-09-06T21:35:40.858Z,24.20
2018-09-06T21:38:09.042Z,27.97
2018-09-06T21:40:37.231Z,28.03
2018-09-06T21:43:05.794Z,27.33
2018-09-06T21:45:33.959Z,28.73
2018-09-06T21:48:02.134Z,28.63
2018-09-06T21:50:30.354Z,29.30
2018-09-06T21:52:58.608Z,30.03
2018-09-06T21:55:26.786Z,30.87
2018-09-06T21:57:54.993Z,31.40
2018-09-06T22:00:23.180Z,31.20
2018-09-06T22:02:56.563Z,31.77
2018-09-06T22:05:24.743Z,32.63
2018-09-06T22:07:52.934Z,33.47
2018-09-06T22:10:22.238Z,30.33
2018-09-06T22:12:51.066Z,32.20
2018-09-06T22:15:19.629Z,32.20
2018-09-06T22:17:47.807Z,31.97
2018-09-06T22:20:16.030Z,31.97
2018-09-06T22:22:44.280Z,32.37
2018-09-06T22:25:12.463Z,32.57
2018-09-06T22:27:40.641Z,30.17
2018-09-06T22:30:08.891Z,30.90
2018-09-06T22:32:37.086Z,30.70
2018-09-06T22:35:05.278Z,30.83
2018-09-06T22:37:33.477Z,31.13
2018-09-06T22:40:01.663Z,29.60
2018-09-06T22:42:29.851Z,30.30
2018-09-06T22:44:58.047Z,29.17
2018-09-06T22:47:26.238Z,29.70
2018-09-06T22:49:54.416Z,30.60
2018-09-06T22:52:22.599Z,33.30
2018-09-06T22:54:50.812Z,32.70
2018-09-06T22:57:19.001Z,32.27
2018-09-06T22:59:47.198Z,31.30
2018-09-06T23:02:15.382Z,33.67
2018-09-06T23:04:43.568Z,35.23
2018-09-06T23:07:11.774Z,33.30
2018-09-06T23:09:39.967Z,31.60
2018-09-06T23:12:08.168Z,34.17
2018-09-06T23:14:36.367Z,31.77
2018-09-06T23:17:04.539Z,30.97
2018-09-06T23:19:32.723Z,32.33
2018-09-06T23:22:00.910Z,31.70
2018-09-06T23:24:29.512Z,30.97
2018-09-06T23:26:57.699Z,30.90
2018-09-06T23:29:25.899Z,31.40
2018-09-06T23:31:54.173Z,30.57
2018-09-06T23:34:22.363Z,30.67
2018-09-06T23:36:50.549Z,32.20
2018-09-06T23:39:18.726Z,31.30
2018-09-06T23:41:46.911Z,31.40
2018-09-06T23:44:15.103Z,32.90
2018-09-06T23:46:43.291Z,32.70
2018-09-06T23:49:11.485Z,31.20
2018-09-06T23:51:39.660Z,32.40
2018-09-06T23:54:07.859Z,32.67
2018-09-06T23:56:36.062Z,31.47
2018-09-06T23:59:04.251Z,32.30
